createdAt,value
2022-09-29T00:00:30.285Z,12.57
2022-09-29T00:03:02.548Z,12.18
2022-09-29T00:05:34.785Z,12.10
2022-09-29T00:08:06.967Z,12.13
2022-09-29T00:10:41.483Z,12.82
2022-09-29T00:13:14.627Z,13.90
2022-09-29T00:15:59.875Z,13.13
2022-09-29T00:18:34.836Z,12.48
2022-09-29T00:21:17.403Z,13.10
2022-09-29T00:23:50.895Z,14.10
2022-09-29T00:26:24.420Z,13.93
2022-09-29T00:28:59.124Z,12.75
2022-09-29T00:31:33.331Z,12.50
2022-09-29T00:34:05.816Z,14.15
2022-09-29T00:36:38.406Z,13.23
2022-09-29T00:39:10.907Z,13.73
2022-09-29T00:41:43.082Z,13.45
2022-09-29T00:44:14.984Z,13.90
2022-09-29T00:46:56.771Z,14.45
2022-09-29T00:49:44.128Z,13.32
2022-09-29T00:52:20.100Z,14.23
2022-09-29T00:55:26.218Z,14.90
2022-09-29T00:58:13.676Z,13.50
2022-09-29T01:00:45.830Z,15.15
2022-09-29T01:03:22.778Z,13.40
2022-09-29T01:06:22.616Z,15.40
2022-09-29T01:09:03.628Z,13.68
2022-09-29T01:11:35.582Z,13.20
2022-09-29T01:14:10.270Z,14.57
2022-09-29T01:16:43.463Z,14.02
2022-09-29T01:19:28.419Z,13.98
2022-09-29T01:22:41.385Z,14.32
2022-09-29T01:26:09.393Z,13.50
2022-09-29T01:29:20.285Z,13.85
2022-09-29T01:32:07.535Z,14.30
2022-09-29T01:35:09.907Z,14.48
2022-09-29T01:37:50.673Z,14.85
2022-09-29T01:40:32.426Z,13.90
2022-09-29T01:43:37.226Z,14.15
2022-09-29T01:46:10.678Z,14.68
2022-09-29T01:48:50.935Z,14.27
2022-09-29T01:51:53.428Z,13.48
2022-09-29T01:54:48.174Z,16.73
2022-09-29T01:57:33.036Z,14.40
2022-09-29T02:00:12.795Z,15.73
2022-09-29T02:03:16.342Z,14.55
2022-09-29T02:06:02.313Z,14.73
2022-09-29T02:08:45.202Z,14.75
2022-09-29T02:11:17.914Z,14.68
2022-09-29T02:14:21.137Z,14.85
2022-09-29T02:17:01.095Z,16.98
2022-09-29T02:19:37.337Z,14.68
2022-09-29T02:22:09.435Z,15.63
2022-09-29T02:24:41.952Z,15.05
2022-09-29T02:27:14.038Z,15.48
2022-09-29T02:29:46.448Z,15.60
2022-09-29T02:32:20.093Z,14.57
2022-09-29T02:34:53.398Z,15.63
2022-09-29T02:37:40.064Z,16.75
2022-09-29T02:40:48.641Z,15.55
2022-09-29T02:43:23.351Z,16.35
2022-09-29T02:46:00.757Z,16.52
2022-09-29T02:49:10.522Z,16.75
2022-09-29T02:51:48.315Z,14.88
2022-09-29T02:54:38.076Z,15.80
2022-09-29T02:57:17.946Z,16.02
2022-09-29T03:00:09.704Z,16.55
2022-09-29T03:02:43.781Z,16.38
2022-09-29T03:05:20.298Z,15.85
2022-09-29T03:07:52.490Z,16.58
2022-09-29T03:10:29.277Z,16.00
2022-09-29T03:13:02.059Z,16.25
2022-09-29T03:15:33.963Z,16.60
2022-09-29T03:18:10.102Z,15.57
2022-09-29T03:20:42.323Z,16.80
2022-09-29T03:23:14.216Z,15.73
2022-09-29T03:25:46.113Z,16.05
2022-09-29T03:28:18.141Z,16.55
2022-09-29T03:30:50.080Z,15.98
2022-09-29T03:33:22.309Z,15.35
2022-09-29T03:35:54.230Z,15.52
2022-09-29T03:38:26.134Z,15.90
2022-09-29T03:40:58.137Z,16.83
2022-09-29T03:43:30.491Z,16.67
2022-09-29T03:46:02.509Z,16.15
2022-09-29T03:48:35.501Z,15.55
2022-09-29T03:51:07.780Z,15.93
2022-09-29T03:53:39.797Z,17.42
2022-09-29T03:56:11.835Z,16.67
2022-09-29T03:58:43.805Z,16.95
2022-09-29T04:01:15.785Z,17.38
2022-09-29T04:03:47.787Z,17.98
2022-09-29T04:06:19.664Z,17.55
2022-09-29T04:08:51.606Z,18.13
2022-09-29T04:11:23.485Z,17.08
2022-09-29T04:13:55.442Z,18.65
2022-09-29T04:16:27.384Z,18.65
2022-09-29T04:18:59.331Z,17.20
2022-09-29T04:21:31.255Z,17.02
2022-09-29T04:24:03.180Z,17.88
2022-09-29T04:26:35.149Z,18.02
2022-09-29T04:29:07.282Z,17.42
2022-09-29T04:31:39.196Z,16.60
2022-09-29T04:34:11.192Z,18.13
2022-09-29T04:36:43.094Z,17.85
2022-09-29T04:39:15.162Z,17.00
2022-09-29T04:41:47.180Z,17.10
2022-09-29T04:44:22.274Z,17.50
2022-09-29T04:46:54.266Z,18.25
2022-09-29T04:49:26.310Z,18.20
2022-09-29T04:51:58.217Z,18.48
2022-09-29T04:54:37.850Z,18.88
2022-09-29T04:57:10.761Z,18.42
2022-09-29T04:59:42.692Z,18.08
2022-09-29T05:02:14.948Z,18.40
2022-09-29T05:04:47.759Z,17.85
2022-09-29T05:07:19.728Z,18.50
2022-09-29T05:09:51.670Z,18.75
2022-09-29T05:12:23.678Z,18.05
2022-09-29T05:14:55.595Z,18.17
2022-09-29T05:17:27.488Z,18.27
2022-09-29T05:19:59.402Z,20.25
2022-09-29T05:22:31.917Z,18.85
2022-09-29T05:25:04.221Z,18.20
2022-09-29T05:27:37.674Z,18.88
2022-09-29T05:30:10.232Z,18.63
2022-09-29T05:32:44.246Z,18.20
2022-09-29T05:35:16.295Z,18.58
2022-09-29T05:37:48.281Z,19.45
2022-09-29T05:40:24.169Z,18.40
2022-09-29T05:42:58.507Z,19.25
2022-09-29T05:45:30.488Z,18.13
2022-09-29T05:48:02.422Z,18.17
2022-09-29T05:50:41.663Z,19.15
2022-09-29T05:53:13.879Z,20.27
2022-09-29T05:55:46.099Z,18.67
2022-09-29T05:58:18.798Z,18.55
2022-09-29T06:00:50.800Z,18.50
2022-09-29T06:03:22.719Z,18.13
2022-09-29T06:05:54.632Z,17.90
2022-09-29T06:08:26.551Z,19.65
2022-09-29T06:11:21.478Z,19.77
2022-09-29T06:13:54.915Z,19.40
2022-09-29T06:16:30.403Z,19.95
2022-09-29T06:19:03.612Z,19.27
2022-09-29T06:21:37.822Z,20.15
2022-09-29T06:24:09.778Z,20.25
2022-09-29T06:26:41.701Z,18.85
2022-09-29T06:29:13.734Z,19.52
2022-09-29T06:31:45.834Z,20.48
2022-09-29T06:34:17.924Z,20.20
2022-09-29T06:37:08.060Z,21.70
2022-09-29T06:39:40.028Z,20.67
2022-09-29T06:42:12.615Z,22.30
2022-09-29T06:44:44.501Z,21.92
2022-09-29T06:47:16.561Z,21.52
2022-09-29T06:49:58.811Z,23.30
2022-09-29T06:52:32.196Z,21.75
2022-09-29T06:55:04.592Z,21.58
2022-09-29T06:57:37.377Z,23.45
2022-09-29T07:00:10.696Z,24.48
2022-09-29T07:02:49.103Z,23.00
2022-09-29T07:05:21.156Z,21.88
2022-09-29T07:08:00.112Z,20.98
2022-09-29T07:10:33.171Z,22.20
2022-09-29T07:13:06.061Z,23.23
2022-09-29T07:15:38.183Z,23.42
2022-09-29T07:18:10.106Z,22.88
2022-09-29T07:20:42.035Z,22.63
2022-09-29T07:23:13.993Z,24.52
2022-09-29T07:25:52.146Z,22.20
2022-09-29T07:28:24.344Z,23.25
2022-09-29T07:31:14.728Z,22.05
2022-09-29T07:33:50.068Z,23.90
2022-09-29T07:36:22.042Z,24.33
2022-09-29T07:38:54.025Z,23.40
2022-09-29T07:41:25.936Z,21.85
2022-09-29T07:43:57.907Z,24.08
2022-09-29T07:46:29.965Z,24.95
2022-09-29T07:49:01.999Z,22.67
2022-09-29T07:51:33.887Z,22.30
2022-09-29T07:54:05.921Z,21.45
2022-09-29T07:56:37.926Z,22.27
2022-09-29T07:59:11.513Z,21.20
2022-09-29T08:01:43.513Z,21.55
2022-09-29T08:04:15.541Z,20.05
2022-09-29T08:06:47.741Z,21.50
2022-09-29T08:09:20.549Z,20.00
2022-09-29T08:12:03.981Z,20.52
2022-09-29T08:14:43.933Z,20.05
2022-09-29T08:17:16.243Z,19.60
2022-09-29T08:19:48.463Z,20.35
2022-09-29T08:22:20.434Z,19.25
2022-09-29T08:24:52.440Z,20.50
2022-09-29T08:27:24.393Z,19.88
2022-09-29T08:29:57.990Z,21.85
2022-09-29T08:32:29.904Z,22.13
2022-09-29T08:35:02.205Z,23.35
2022-09-29T08:37:35.158Z,22.67
2022-09-29T08:40:08.704Z,21.92
2022-09-29T08:43:04.991Z,20.33
2022-09-29T08:46:04.792Z,21.50
2022-09-29T08:48:53.881Z,20.60
2022-09-29T08:51:43.203Z,19.92
2022-09-29T08:54:40.906Z,20.02
2022-09-29T08:57:18.869Z,19.40
2022-09-29T08:59:58.270Z,18.63
2022-09-29T09:03:05.264Z,18.63
2022-09-29T09:06:33.968Z,19.25
2022-09-29T09:09:20.863Z,18.00
2022-09-29T09:11:58.803Z,17.13
2022-09-29T09:15:00.050Z,18.33
2022-09-29T09:18:13.637Z,16.90
2022-09-29T09:21:03.797Z,15.90
2022-09-29T09:24:00.767Z,16.77
2022-09-29T09:26:40.824Z,19.50
2022-09-29T09:29:36.602Z,15.93
2022-09-29T09:32:25.683Z,17.35
2022-09-29T09:35:25.402Z,16.98
2022-09-29T09:38:06.711Z,16.48
2022-09-29T09:40:47.470Z,15.50
2022-09-29T09:43:46.377Z,16.17
2022-09-29T09:46:25.475Z,19.55
2022-09-29T09:49:13.794Z,16.65
2022-09-29T09:51:56.909Z,17.52
2022-09-29T09:54:37.150Z,16.88
2022-09-29T09:57:33.755Z,17.60
2022-09-29T10:00:14.213Z,17.52
2022-09-29T10:02:52.581Z,17.80
2022-09-29T10:05:46.668Z,17.95
2022-09-29T10:08:29.685Z,19.23
2022-09-29T10:11:01.662Z,17.75
2022-09-29T10:13:33.807Z,15.60
2022-09-29T10:16:25.110Z,14.15
2022-09-29T10:18:57.117Z,12.43
2022-09-29T10:21:29.773Z,12.57
2022-09-29T10:24:02.777Z,11.98
2022-09-29T10:26:43.725Z,11.27
2022-09-29T10:29:36.755Z,10.98
2022-09-29T10:32:25.026Z,11.27
2022-09-29T10:35:19.209Z,12.15
2022-09-29T10:38:06.385Z,12.13
2022-09-29T10:41:03.439Z,11.93
2022-09-29T10:43:40.564Z,10.98
2022-09-29T10:46:48.606Z,11.38
2022-09-29T10:49:23.876Z,12.07
2022-09-29T10:52:14.377Z,12.02
2022-09-29T10:55:00.178Z,10.05
2022-09-29T10:57:34.353Z,11.63
2022-09-29T11:00:07.300Z,10.30
2022-09-29T11:02:41.959Z,11.02
2022-09-29T11:05:26.148Z,11.70
2022-09-29T11:07:58.138Z,11.50
2022-09-29T11:10:36.991Z,11.35
2022-09-29T11:13:24.229Z,10.15
2022-09-29T11:16:29.644Z,9.75
2022-09-29T11:19:10.358Z,9.40
2022-09-29T11:22:11.714Z,10.00
2022-09-29T11:24:58.070Z,8.88
2022-09-29T11:27:55.298Z,8.93
2022-09-29T11:31:03.284Z,9.07
2022-09-29T11:34:05.671Z,9.15
2022-09-29T11:37:07.267Z,9.38
2022-09-29T11:40:04.616Z,8.27
2022-09-29T11:42:58.930Z,7.53
2022-09-29T11:46:00.226Z,7.82
2022-09-29T11:49:20.380Z,6.90
2022-09-29T11:52:07.603Z,6.90
2022-09-29T11:55:08.042Z,5.55
2022-09-29T11:57:58.333Z,8.27
2022-09-29T12:03:50.523Z,4.35
2022-09-29T12:06:59.933Z,4.47
2022-09-29T12:10:03.137Z,5.68
2022-09-29T12:12:56.391Z,5.47
2022-09-29T12:15:56.480Z,5.30
2022-09-29T12:18:45.506Z,4.85
2022-09-29T12:21:41.917Z,4.55
2022-09-29T12:24:54.827Z,4.30
2022-09-29T12:27:38.171Z,3.95
2022-09-29T12:30:35.216Z,3.53
2022-09-29T12:33:39.126Z,4.45
2022-09-29T12:37:02.385Z,3.92
2022-09-29T12:40:00.460Z,3.40
2022-09-29T12:43:03.059Z,4.03
2022-09-29T12:45:43.373Z,3.50
2022-09-29T12:48:27.773Z,4.22
2022-09-29T12:51:18.031Z,3.47
2022-09-29T12:54:17.693Z,4.00
2022-09-29T12:57:04.156Z,4.45
2022-09-29T13:00:06.008Z,3.58
2022-09-29T13:02:56.825Z,3.00
2022-09-29T13:05:58.665Z,3.38
2022-09-29T13:09:07.968Z,3.17
2022-09-29T13:12:36.565Z,2.88
2022-09-29T13:15:47.879Z,4.80
2022-09-29T13:18:34.991Z,3.75
2022-09-29T13:21:40.881Z,3.22
2022-09-29T13:24:52.410Z,4.18
2022-09-29T13:27:42.653Z,3.22
2022-09-29T13:30:19.521Z,3.60
2022-09-29T13:33:02.420Z,3.88
2022-09-29T13:35:45.468Z,4.20
2022-09-29T13:38:24.857Z,4.03
2022-09-29T13:41:37.508Z,3.73
2022-09-29T13:44:18.437Z,3.30
2022-09-29T13:46:52.384Z,3.60
2022-09-29T13:49:33.253Z,3.63
2022-09-29T13:52:11.898Z,3.78
2022-09-29T13:54:44.406Z,3.38
2022-09-29T13:57:16.716Z,3.75
2022-09-29T13:59:54.791Z,3.83
2022-09-29T14:02:52.278Z,3.58
2022-09-29T14:05:24.407Z,3.53
2022-09-29T14:07:57.380Z,3.15
2022-09-29T14:10:49.224Z,3.13
2022-09-29T14:13:29.245Z,2.95
2022-09-29T14:16:22.819Z,2.65
2022-09-29T14:19:24.936Z,3.42
2022-09-29T14:22:01.115Z,3.28
2022-09-29T14:24:45.641Z,3.20
2022-09-29T14:27:38.915Z,3.83
2022-09-29T14:30:13.442Z,3.33
2022-09-29T14:33:23.627Z,3.63
2022-09-29T14:35:55.452Z,3.08
2022-09-29T14:38:31.682Z,2.67
2022-09-29T14:41:19.504Z,3.47
2022-09-29T14:44:01.053Z,2.53
2022-09-29T14:47:16.360Z,2.80
2022-09-29T14:50:40.019Z,2.97
2022-09-29T14:53:25.135Z,3.20
2022-09-29T14:56:21.644Z,3.28
2022-09-29T14:59:11.011Z,3.25
2022-09-29T15:02:19.820Z,3.22
2022-09-29T15:04:51.806Z,3.20
2022-09-29T15:07:27.460Z,3.60
2022-09-29T15:10:00.074Z,3.90
2022-09-29T15:12:33.447Z,3.50
2022-09-29T15:15:06.501Z,3.50
2022-09-29T15:17:55.596Z,4.22
2022-09-29T15:20:38.156Z,4.28
2022-09-29T15:24:04.699Z,3.90
2022-09-29T15:26:38.618Z,3.30
2022-09-29T15:29:17.932Z,3.63
2022-09-29T15:31:50.577Z,3.60
2022-09-29T15:34:25.840Z,3.20
2022-09-29T15:36:58.770Z,7.63
2022-09-29T15:39:33.661Z,5.13
2022-09-29T15:42:24.034Z,7.82
2022-09-29T15:47:40.650Z,3.95
2022-09-29T15:50:25.309Z,4.13
2022-09-29T15:52:57.264Z,5.57
2022-09-29T15:55:31.726Z,4.25
2022-09-29T15:58:26.402Z,3.35
2022-09-29T16:01:06.600Z,3.45
2022-09-29T16:03:57.723Z,2.88
2022-09-29T16:06:33.868Z,4.07
2022-09-29T16:09:18.332Z,3.15
2022-09-29T16:11:50.373Z,3.72
2022-09-29T16:14:24.218Z,3.40
2022-09-29T16:16:56.722Z,3.20
2022-09-29T16:19:32.193Z,2.95
2022-09-29T16:22:09.146Z,5.15
2022-09-29T16:25:11.668Z,3.72
2022-09-29T16:27:57.763Z,2.65
2022-09-29T16:30:35.988Z,2.35
2022-09-29T16:33:22.500Z,2.20
2022-09-29T16:35:54.502Z,2.10
2022-09-29T16:38:44.137Z,2.97
2022-09-29T16:41:35.829Z,2.95
2022-09-29T16:44:33.054Z,2.38
2022-09-29T16:47:16.857Z,1.75
2022-09-29T16:50:12.439Z,2.72
2022-09-29T16:52:51.010Z,1.75
2022-09-29T16:55:24.681Z,2.20
2022-09-29T16:58:03.214Z,1.73
2022-09-29T17:00:36.660Z,2.40
2022-09-29T17:03:10.321Z,1.90
2022-09-29T17:05:47.843Z,1.98
2022-09-29T17:08:25.843Z,1.95
2022-09-29T17:10:58.082Z,5.30
2022-09-29T17:13:35.417Z,5.95
2022-09-29T17:16:11.101Z,5.82
2022-09-29T17:18:43.174Z,3.38
2022-09-29T17:21:15.349Z,3.95
2022-09-29T17:23:47.252Z,3.25
2022-09-29T17:26:43.631Z,3.50
2022-09-29T17:29:15.663Z,3.50
2022-09-29T17:31:47.636Z,3.38
2022-09-29T17:34:25.623Z,2.30
2022-09-29T17:37:00.291Z,2.70
2022-09-29T17:39:32.379Z,2.70
2022-09-29T17:42:04.582Z,3.25
2022-09-29T17:44:39.291Z,2.42
2022-09-29T17:47:27.733Z,3.47
2022-09-29T17:50:38.245Z,5.85
2022-09-29T17:53:16.759Z,3.67
2022-09-29T17:55:51.220Z,5.57
2022-09-29T17:58:24.070Z,5.03
2022-09-29T18:00:59.695Z,3.45
2022-09-29T18:03:34.508Z,4.45
2022-09-29T18:06:08.615Z,4.18
2022-09-29T18:08:40.546Z,4.32
2022-09-29T18:11:12.458Z,3.38
2022-09-29T18:13:45.304Z,3.63
2022-09-29T18:16:22.052Z,4.38
2022-09-29T18:18:58.795Z,4.95
2022-09-29T18:21:33.057Z,3.80
2022-09-29T18:24:05.383Z,5.53
2022-09-29T18:26:37.475Z,4.35
2022-09-29T18:29:16.169Z,4.45
2022-09-29T18:31:48.330Z,4.13
2022-09-29T18:34:22.417Z,4.35
2022-09-29T18:36:54.501Z,3.85
2022-09-29T18:39:26.554Z,4.13
2022-09-29T18:41:58.516Z,5.78
2022-09-29T18:44:33.569Z,5.13
2022-09-29T18:47:05.477Z,6.28
2022-09-29T18:49:37.485Z,4.72
2022-09-29T18:52:10.306Z,6.35
2022-09-29T18:54:42.221Z,4.93
2022-09-29T18:57:18.595Z,6.80
2022-09-29T18:59:52.213Z,5.22
2022-09-29T19:02:26.229Z,5.82
2022-09-29T19:04:58.426Z,4.53
2022-09-29T19:07:31.250Z,4.80
2022-09-29T19:10:03.624Z,5.13
2022-09-29T19:12:35.838Z,4.35
2022-09-29T19:15:08.375Z,6.97
2022-09-29T19:17:40.451Z,4.85
2022-09-29T19:20:14.437Z,6.80
2022-09-29T19:22:47.210Z,4.30
2022-09-29T19:25:26.148Z,4.20
2022-09-29T19:27:59.087Z,4.25
2022-09-29T19:30:38.366Z,4.07
2022-09-29T19:33:18.507Z,3.50
2022-09-29T19:35:57.419Z,3.60
2022-09-29T19:38:29.553Z,4.03
2022-09-29T19:41:02.209Z,3.40
2022-09-29T19:43:34.138Z,3.22
2022-09-29T19:46:11.776Z,3.70
2022-09-29T19:48:44.101Z,4.00
2022-09-29T19:51:36.725Z,3.80
2022-09-29T19:54:14.364Z,3.00
2022-09-29T19:57:17.791Z,3.20
2022-09-29T19:59:49.748Z,3.55
2022-09-29T20:02:21.790Z,3.50
2022-09-29T20:04:53.762Z,4.20
2022-09-29T20:07:25.805Z,7.68
2022-09-29T20:09:57.720Z,7.47
2022-09-29T20:12:30.372Z,5.38
2022-09-29T20:15:02.327Z,3.65
2022-09-29T20:17:35.204Z,3.92
2022-09-29T20:20:10.127Z,3.80
2022-09-29T20:22:42.130Z,3.97
2022-09-29T20:25:14.080Z,4.30
2022-09-29T20:27:46.092Z,4.13
2022-09-29T20:30:20.811Z,3.50
2022-09-29T20:32:52.877Z,4.28
2022-09-29T20:35:24.836Z,4.43
2022-09-29T20:37:56.856Z,4.00
2022-09-29T20:40:28.892Z,3.58
2022-09-29T20:43:00.847Z,4.30
2022-09-29T20:45:32.774Z,3.90
2022-09-29T20:48:04.726Z,5.05
2022-09-29T20:50:37.673Z,4.60
2022-09-29T20:53:09.724Z,5.13
2022-09-29T20:55:41.682Z,4.95
2022-09-29T20:58:15.664Z,5.70
2022-09-29T21:00:47.570Z,5.15
2022-09-29T21:03:19.866Z,5.47
2022-09-29T21:05:51.890Z,4.93
2022-09-29T21:08:30.037Z,5.45
2022-09-29T21:11:04.723Z,5.20
2022-09-29T21:13:37.459Z,5.63
2022-09-29T21:16:09.444Z,5.53
2022-09-29T21:18:41.412Z,5.38
2022-09-29T21:21:13.491Z,4.55
2022-09-29T21:23:46.456Z,5.45
2022-09-29T21:26:20.950Z,4.85
2022-09-29T21:28:56.466Z,5.40
2022-09-29T21:31:34.584Z,5.05
2022-09-29T21:34:08.214Z,5.25
2022-09-29T21:36:40.439Z,5.07
2022-09-29T21:39:14.661Z,4.93
2022-09-29T21:41:46.987Z,5.40
2022-09-29T21:44:24.450Z,5.40
2022-09-29T21:46:56.658Z,4.78
2022-09-29T21:49:28.670Z,4.82
2022-09-29T21:52:02.167Z,4.88
2022-09-29T21:54:37.756Z,4.60
2022-09-29T21:57:10.145Z,5.47
2022-09-29T21:59:42.081Z,5.20
2022-09-29T22:02:14.097Z,5.47
2022-09-29T22:04:46.154Z,4.78
2022-09-29T22:07:18.083Z,5.53
2022-09-29T22:09:50.136Z,5.43
2022-09-29T22:12:22.986Z,5.55
2022-09-29T22:14:54.910Z,5.72
2022-09-29T22:17:26.930Z,5.93
2022-09-29T22:19:58.866Z,5.32
2022-09-29T22:22:30.802Z,6.43
2022-09-29T22:25:04.815Z,5.47
2022-09-29T22:27:36.760Z,4.88
2022-09-29T22:30:11.332Z,5.80
2022-09-29T22:32:43.362Z,6.15
2022-09-29T22:35:16.175Z,6.07
2022-09-29T22:37:48.135Z,6.10
2022-09-29T22:40:20.518Z,4.97
2022-09-29T22:42:52.533Z,5.55
2022-09-29T22:45:24.467Z,5.80
2022-09-29T22:47:57.578Z,6.32
2022-09-29T22:50:33.619Z,5.78
2022-09-29T22:53:05.825Z,5.80
2022-09-29T22:55:40.034Z,5.53
2022-09-29T22:58:12.913Z,5.88
2022-09-29T23:00:44.841Z,5.78
2022-09-29T23:03:16.957Z,5.88
2022-09-29T23:05:48.979Z,6.03
2022-09-29T23:08:20.999Z,6.50
2022-09-29T23:10:56.087Z,5.72
2022-09-29T23:13:28.163Z,5.93
2022-09-29T23:16:12.365Z,6.50
2022-09-29T23:18:47.366Z,6.53
2022-09-29T23:21:19.771Z,6.50
2022-09-29T23:23:58.010Z,6.80
2022-09-29T23:26:31.383Z,6.57
2022-09-29T23:29:03.866Z,7.78
2022-09-29T23:31:35.876Z,6.07
2022-09-29T23:34:09.784Z,6.70
2022-09-29T23:36:41.849Z,6.00
2022-09-29T23:39:21.363Z,6.50
2022-09-29T23:41:54.329Z,6.03
2022-09-29T23:44:30.231Z,6.57
2022-09-29T23:47:02.957Z,6.50
2022-09-29T23:49:34.934Z,5.63
2022-09-29T23:52:06.900Z,6.53
2022-09-29T23:54:38.851Z,5.97
2022-09-29T23:57:10.825Z,6.18
2022-09-29T23:59:42.726Z,5.95
